• Join FlightAware (Why Join?)
  • Login
  • US Flag 
07:34AM EDT


 

Airport Tracker/Info


-or-


 

Live Flight TrackerFlight Track Log ✈ UAL4457 ✈ 03-May-2013 ✈ KLEX - KIAH

Flight Track Log - Related Links

Times and Time Zones

All times are in EDT time to prevent confusion due to time zone crossing. See the UAL4457 flight status page for this flight to view local times or setup timezone preferences in your user account.

Time Position Orientation Groundspeed Altitude Reporting Facility
EDT Latitude Longitude Course Direction KTS MPH feet Rate Location/Type
05:53PM 37.9658 -84.7192 240° Southwest 235 270 4,500  Level Indianapolis Center
05:54PM 37.9319 -84.8061 244° Southwest 254 292 7,100 2,580 Climbing Indianapolis Center
05:55PM 37.8484 -85.0531 238° Southwest  Level FlightAware Approximate
05:55PM 37.8919 -84.9064 243° Southwest 272 313 9,900  Level Indianapolis Center
05:56PM 37.8051 -85.1682 247° West  Level FlightAware Approximate
05:56PM 37.8550 -85.0061 245° Southwest 295 339 10,000  Level Indianapolis Center
05:57PM 37.7613 -85.2831 241° Southwest  Level FlightAware Approximate
05:57PM 37.7797 -85.0914 222° Southwest 348 400 11,900  Level Indianapolis Center
05:58PM 37.7033 -85.1625 216° Southwest 342 394 13,100 1,200 Climbing Indianapolis Center
05:59PM 37.6231 -85.2392 217° Southwest 356 410 14,500 1,260 Climbing Indianapolis Center
06:00PM 37.5672 -85.3461 237° Southwest 383 441 15,800 1,260 Climbing Indianapolis Center
06:01PM 37.5406 -85.5000 258° West 386 444 17,200 1,260 Climbing Indianapolis Center
06:02PM 37.5144 -85.6133 254° West 382 440 18,500 1,440 Climbing Indianapolis Center
06:03PM 37.4428 -85.7119 228° Southwest 380 437 20,200 1,680 Climbing Indianapolis Center
06:04PM 37.3758 -85.8064 228° Southwest 363 418 22,000 2,040 Climbing Indianapolis Center
06:05PM 37.3500 -85.8486 232° Southwest 364 419 23,100 1,920 Climbing Memphis Center
06:05PM 37.3033 -85.9119 227° Southwest 356 410 24,000 1,680 Climbing Indianapolis Center
06:07PM 37.2375 -86.0033 228° Southwest 352 405 25,900 1,740 Climbing Indianapolis Center
06:08PM 37.1733 -86.0922 228° Southwest 343 395 27,600 1,620 Climbing Indianapolis Center
06:08PM 37.1475 -86.1308 230° Southwest 349 402 28,100 1,440 Climbing Memphis Center
06:09PM 37.0858 -86.2197 229° Southwest 349 402 29,500 1,500 Climbing Memphis Center
06:10PM 37.0219 -86.3036 226° Southwest 349 402 31,200 1,560 Climbing Memphis Center
06:11PM 36.9603 -86.3925 229° Southwest 349 402 32,700 1,380 Climbing Memphis Center
06:12PM 36.9089 -86.4883 236° Southwest 334 384 34,000 1,380 Climbing Memphis Center
06:13PM 36.8578 -86.5817 236° Southwest 334 384 35,500 960 Climbing Memphis Center
06:14PM 36.8064 -86.6772 236° Southwest 334 384 36,000 240 Climbing Memphis Center
06:15PM 36.7511 -86.7783 236° Southwest 346 398 36,000  Level Memphis Center
06:16PM 36.6917 -86.8869 236° Southwest 372 428 36,000  Level Memphis Center
06:17PM 36.6303 -87.0033 237° Southwest 399 459 36,000  Level Memphis Center
06:18PM 36.5625 -87.1225 235° Southwest 420 483 36,000  Level Memphis Center
06:19PM 36.4967 -87.2439 236° Southwest 426 490 36,000  Level Memphis Center
06:20PM 36.4328 -87.3572 235° Southwest 420 483 36,000  Level Memphis Center
06:21PM 36.3708 -87.4678 235° Southwest 406 467 36,000  Level Memphis Center
06:22PM 36.3108 -87.5781 236° Southwest 393 452 36,000  Level Memphis Center
06:23PM 36.2447 -87.6936 235° Southwest 398 458 36,000  Level Memphis Center
06:24PM 36.1864 -87.7958 235° Southwest 410 472 36,000  Level Memphis Center
06:25PM 36.1200 -87.9161 236° Southwest 420 483 36,000  Level Memphis Center
06:26PM 36.0533 -88.0336 235° Southwest 425 489 36,000  Level Memphis Center
06:27PM 35.9825 -88.1536 234° Southwest 431 496 36,000  Level Memphis Center
06:28PM 35.9158 -88.2733 236° Southwest 424 488 36,000  Level Memphis Center
06:29PM 35.8467 -88.3878 233° Southwest 424 488 36,000  Level Memphis Center
06:30PM 35.7797 -88.5044 235° Southwest 419 482 36,000  Level Memphis Center
06:31PM 35.7128 -88.6208 235° Southwest 419 482 36,000  Level Memphis Center
06:32PM 35.6453 -88.7347 234° Southwest 419 482 36,000  Level Memphis Center
06:33PM 35.5842 -88.8458 236° Southwest 413 475 36,000  Level Memphis Center
06:34PM 35.5167 -88.9592 234° Southwest 408 470 36,000  Level Memphis Center
06:35PM 35.4533 -89.0750 236° Southwest 414 476 36,000  Level Memphis Center
06:36PM 35.3856 -89.1831 232° Southwest 409 471 36,000  Level Memphis Center
06:37PM 35.3219 -89.2958 235° Southwest 404 465 36,000  Level Memphis Center
06:38PM 35.2561 -89.4061 234° Southwest 409 471 36,000  Level Memphis Center
06:39PM 35.1922 -89.5161 235° Southwest 403 464 36,000  Level Memphis Center
06:40PM 35.1261 -89.6258 234° Southwest 403 464 36,000  Level Memphis Center
06:41PM 35.0642 -89.7356 235° Southwest 403 464 36,000  Level Memphis Center
06:42PM 35.0000 -89.8475 235° Southwest 403 464 36,000  Level Memphis Center
06:43PM 34.9336 -89.9569 234° Southwest 409 471 36,000  Level Memphis Center
06:44PM 34.8672 -90.0636 233° Southwest 403 464 36,000  Level Memphis Center
06:45PM 34.8028 -90.1700 234° Southwest 403 464 36,000  Level Memphis Center
06:46PM 34.7381 -90.2764 234° Southwest 396 456 36,000  Level Memphis Center
06:47PM 34.6694 -90.3875 233° Southwest 402 463 36,000  Level Memphis Center
06:48PM 34.6047 -90.4983 235° Southwest 409 471 36,000  Level Memphis Center
06:49PM 34.5356 -90.6067 232° Southwest 404 465 36,000  Level Memphis Center
06:50PM 34.4747 -90.7022 232° Southwest 404 465 36,000  Level Memphis Center
06:51PM 34.4078 -90.8153 234° Southwest 409 471 36,000  Level Memphis Center
06:52PM 34.3406 -90.9256 234° Southwest 409 471 36,000  Level Memphis Center
06:53PM 34.2753 -91.0308 233° Southwest 409 471 36,000  Level Memphis Center
06:54PM 34.2100 -91.1358 233° Southwest 404 465 36,000  Level Memphis Center
06:55PM 34.1467 -91.2356 233° Southwest 391 450 36,000  Level Memphis Center
06:56PM 34.0750 -91.3503 233° Southwest 391 450 36,000  Level Memphis Center
06:57PM 34.0094 -91.4547 233° Southwest 391 450 36,000  Level Memphis Center
06:58PM 33.9436 -91.5592 233° Southwest 397 457 36,000  Level Memphis Center
07:00PM 33.8331 -91.7553 236° Southwest 391 450 36,000  Level Fort Worth Center
07:01PM 33.7561 -91.8575 228° Southwest 398 458 36,000  Level Fort Worth Center
07:02PM 33.6961 -91.9639 236° Southwest 403 464 36,000  Level Fort Worth Center
07:03PM 33.6314 -92.0600 231° Southwest 395 455 36,000  Level Fort Worth Center
07:04PM 33.5647 -92.1639 232° Southwest 390 449 36,000  Level Fort Worth Center
07:05PM 33.4981 -92.2650 232° Southwest 390 449 36,000  Level Fort Worth Center
07:06PM 33.4047 -92.3275 209° Southwest 384 442 36,000  Level Fort Worth Center
07:07PM 33.2950 -92.3539 191° South 375 432 36,000  Level Fort Worth Center
07:08PM 33.1836 -92.3800 191° South 395 455 36,000  Level Fort Worth Center
07:09PM 33.0719 -92.4086 192° South 410 472 36,000  Level Fort Worth Center
07:10PM 32.9603 -92.4347 191° South 415 478 36,000  Level Fort Worth Center
07:11PM 32.8486 -92.4608 191° South 415 478 36,000  Level Fort Worth Center
07:12PM 32.7389 -92.4864 191° South 409 471 36,000  Level Fort Worth Center
07:13PM 32.6275 -92.5147 192° South 409 471 36,000  Level Fort Worth Center
07:15PM 32.4158 -92.5700 192° South 408 470 36,000  Level Houston Center
07:16PM 32.3044 -92.5989 192° South 409 471 36,000 -60 Level Houston Center
07:17PM 32.1931 -92.6239 191° South 409 471 35,900  Descending Houston Center
07:18PM 32.0586 -92.6556 191° South 409 471 36,000  Climbing Houston Center
07:19PM 31.9531 -92.6981 199° South 403 464 36,000  Level Houston Center
07:20PM 31.8678 -92.7794 219° Southwest 401 461 36,000  Level Houston Center
07:21PM 31.7836 -92.8608 219° Southwest 394 453 36,000  Level Houston Center
07:22PM 31.6983 -92.9419 219° Southwest 395 455 36,000  Level Houston Center
07:23PM 31.6133 -93.0247 220° Southwest 397 457 36,000  Level Houston Center
07:24PM 31.5108 -93.1242 220° Southwest 400 460 36,000  Level Houston Center
07:25PM 31.4242 -93.2053 219° Southwest 399 459 36,000  Level Houston Center
07:26PM 31.3447 -93.2808 219° Southwest 399 459 36,000  Level Houston Center
07:27PM 31.2525 -93.3700 220° Southwest 401 461 36,000 -240 Level Houston Center
07:28PM 31.1650 -93.4522 219° Southwest 403 464 35,600 -1,260 Descending Houston Center
07:29PM 31.0822 -93.5331 220° Southwest 395 455 33,500 -2,220 Descending Houston Center
07:30PM 30.9889 -93.6192 218° Southwest 365 420 31,100 -2,160 Descending Houston Center
07:31PM 30.9058 -93.6997 220° Southwest 380 437 29,100 -2,040 Descending Houston Center
07:32PM 30.8147 -93.7856 219° Southwest 419 482 26,900 -2,160 Descending Houston Center
07:33PM 30.7281 -93.8658 219° Southwest 405 466 24,700 -2,160 Descending Houston Center
07:34PM 30.6422 -93.9483 220° Southwest 404 465 22,500 -2,280 Descending Houston Center
07:35PM 30.5453 -94.0386 219° Southwest 376 433 20,000 -2,100 Descending Houston Center
07:36PM 30.4678 -94.1128 220° Southwest 365 420 18,200 -1,800 Descending Houston Center
07:37PM 30.4039 -94.1703 218° Southwest 362 417 16,800 -1,800 Descending Houston Center
07:37PM 30.3889 -94.1850 220° Southwest 364 419 16,400 -1,740 Descending Houston Center
07:38PM 30.3117 -94.2572 219° Southwest 361 415 14,600 -1,980 Descending Houston Center
07:39PM 30.2731 -94.2917 218° Southwest 356 410 13,700 -1,860 Descending Houston Center
07:39PM 30.2378 -94.3258 220° Southwest 347 399 12,700 -1,440 Descending Houston Center
07:40PM 30.1978 -94.3792 229° Southwest 313 360 12,000 -780 Descending Houston Center
07:40PM 30.1897 -94.4058 251° West 315 362 11,900 -480 Descending Houston Center
07:41PM 30.1722 -94.4622 250° West 285 328 11,600 -780 Descending Houston Center
07:41PM 30.1589 -94.4953 245° Southwest 288 331 11,100 -1,140 Descending Houston Center
07:42PM 30.1319 -94.5447 238° Southwest 271 312 10,400 -1,200 Descending Houston Center
07:43PM 30.1119 -94.5856 240° Southwest 276 318 9,900 -1,020 Descending Houston Center
07:43PM 30.0992 -94.6192 246° West 273 314 9,500 -1,080 Descending Houston Center
07:44PM 30.0936 -94.6708 263° West 281 323 8,800 -1,140 Descending Houston Center
07:44PM 30.0844 -94.7056 253° West 272 313 8,400 -1,080 Descending Houston Center
07:45PM 30.0725 -94.7528 254° West 271 312 7,700 -1,200 Descending Houston Center
07:45PM 30.0628 -94.7856 251° West 259 298 7,200 -1,020 Descending Houston Center
07:46PM 30.0511 -94.8308 253° West 260 299 6,700 -1,020 Descending Houston Center
07:46PM 30.0411 -94.8681 253° West 258 297 6,200 -1,020 Descending Houston Center
07:47PM 30.0300 -94.9100 253° West 259 298 5,700 -1,020 Descending Houston Center
07:47PM 30.0181 -94.9556 253° West 258 297 5,100 -1,020 Descending Houston Center
07:48PM 30.0100 -94.9889 254° West 258 297 4,700 -1,140 Descending Houston Center
07:48PM 30.0081 -95.0267 267° West 246 283 4,100 -1,200 Descending Houston Center
07:49PM 30.0081 -95.0800 270° West 238 274 3,500 -720 Descending Houston Center
07:49PM 30.0067 -95.1042 266° West 242 278 3,400 -540 Descending Houston Center
07:50PM 30.0078 -95.1572 271° West 240 276 3,000 -840 Descending Houston Center
07:50PM 30.0078 -95.1836 270° West 228 262 2,600 -1,080 Descending Houston Center
07:51PM 30.0078 -95.2269 270° West 233 268 1,900 -960 Descending Houston Center